createdAt,value
2023-04-18T00:01:19.099Z,61.19
2023-04-18T00:03:45.791Z,61.28
2023-04-18T00:06:13.764Z,61.50
2023-04-18T00:08:40.349Z,61.06
2023-04-18T00:11:07.012Z,60.86
2023-04-18T00:13:33.493Z,60.88
2023-04-18T00:15:59.889Z,60.25
2023-04-18T00:18:27.113Z,60.22
2023-04-18T00:20:54.424Z,59.99
2023-04-18T00:23:22.254Z,59.79
2023-04-18T00:25:48.768Z,60.30
2023-04-18T00:28:15.212Z,60.10
2023-04-18T00:30:41.753Z,60.21
2023-04-18T00:33:08.872Z,60.21
2023-04-18T00:35:35.377Z,60.02
2023-04-18T00:38:01.772Z,60.32
2023-04-18T00:40:28.219Z,60.30
2023-04-18T00:42:54.694Z,60.72
2023-04-18T00:45:21.126Z,60.70
2023-04-18T00:47:47.564Z,61.30
2023-04-18T00:50:15.011Z,60.86
2023-04-18T00:52:42.218Z,60.91
2023-04-18T00:55:09.337Z,61.21
2023-04-18T00:57:36.379Z,62.60
2023-04-18T01:00:10.348Z,61.98
2023-04-18T01:02:37.700Z,62.04
2023-04-18T01:05:04.461Z,61.77
2023-04-18T01:07:33.358Z,61.72
2023-04-18T01:10:00.524Z,61.74
2023-04-18T01:12:26.984Z,63.06
2023-04-18T01:14:53.607Z,62.45
2023-04-18T01:17:20.060Z,62.32
2023-04-18T01:19:46.823Z,61.95
2023-04-18T01:22:14.636Z,62.03
2023-04-18T01:24:42.090Z,62.29
2023-04-18T01:27:12.372Z,62.52
2023-04-18T01:29:39.121Z,62.41
2023-04-18T01:32:06.502Z,62.89
2023-04-18T01:34:32.964Z,62.51
2023-04-18T01:36:59.584Z,63.06
2023-04-18T01:39:26.012Z,63.04
2023-04-18T01:41:52.569Z,63.59
2023-04-18T01:44:19.031Z,65.75
2023-04-18T01:46:45.463Z,64.84
2023-04-18T01:49:11.870Z,64.53
2023-04-18T01:51:43.063Z,65.00
2023-04-18T01:54:09.486Z,65.93
2023-04-18T01:56:35.868Z,65.53
2023-04-18T01:59:02.384Z,68.34
2023-04-18T02:01:28.837Z,66.33
2023-04-18T02:03:55.491Z,65.99
2023-04-18T02:06:22.125Z,66.33
2023-04-18T02:08:48.694Z,66.14
2023-04-18T02:11:15.096Z,66.90
2023-04-18T02:13:41.733Z,66.78
2023-04-18T02:16:12.914Z,66.76
2023-04-18T02:18:40.125Z,66.94
2023-04-18T02:21:06.729Z,67.66
2023-04-18T02:23:33.153Z,67.36
2023-04-18T02:25:59.603Z,67.51
2023-04-18T02:28:26.032Z,68.11
2023-04-18T02:30:52.408Z,67.41
2023-04-18T02:33:18.864Z,68.45
2023-04-18T02:35:45.240Z,68.04
2023-04-18T02:38:11.788Z,68.31
2023-04-18T02:40:38.192Z,68.61
2023-04-18T02:43:04.643Z,68.38
2023-04-18T02:45:31.260Z,69.39
2023-04-18T02:47:57.706Z,68.91
2023-04-18T02:50:25.073Z,69.66
2023-04-18T02:52:51.643Z,69.17
2023-04-18T02:55:18.226Z,69.95
2023-04-18T02:57:44.654Z,69.97
2023-04-18T03:00:11.849Z,69.85
2023-04-18T03:02:38.348Z,70.59
2023-04-18T03:05:05.945Z,70.86
2023-04-18T03:07:32.557Z,71.09
2023-04-18T03:09:59.868Z,70.71
2023-04-18T03:12:26.344Z,70.94
2023-04-18T03:14:52.764Z,71.24
2023-04-18T03:17:19.385Z,70.85
2023-04-18T03:19:46.522Z,71.07
2023-04-18T03:22:14.149Z,71.17
2023-04-18T03:24:40.850Z,71.49
2023-04-18T03:27:07.319Z,71.83
2023-04-18T03:29:34.001Z,72.39
2023-04-18T03:32:00.429Z,72.19
2023-04-18T03:34:27.044Z,72.48
2023-04-18T03:36:54.095Z,73.15
2023-04-18T03:39:20.555Z,72.62
2023-04-18T03:41:46.982Z,72.65
2023-04-18T03:44:13.520Z,72.77
2023-04-18T03:46:40.706Z,73.15
2023-04-18T03:49:07.172Z,73.26
2023-04-18T03:51:42.070Z,73.81
2023-04-18T03:54:08.577Z,74.31
2023-04-18T03:56:35.689Z,78.02
2023-04-18T03:59:02.057Z,76.27
2023-04-18T04:01:28.517Z,75.59
2023-04-18T04:03:55.058Z,76.06
2023-04-18T04:06:21.719Z,76.41
2023-04-18T04:08:48.173Z,75.70
2023-04-18T04:11:14.560Z,76.39
2023-04-18T04:13:40.970Z,77.82
2023-04-18T04:16:07.867Z,76.51
2023-04-18T04:18:34.373Z,78.85
2023-04-18T04:21:00.985Z,79.91
2023-04-18T04:23:27.615Z,78.68
2023-04-18T04:25:54.914Z,77.82
2023-04-18T04:28:22.933Z,77.64
2023-04-18T04:30:50.815Z,77.27
2023-04-18T04:33:20.925Z,78.52
2023-04-18T04:35:47.939Z,81.76
2023-04-18T04:38:15.284Z,81.83
2023-04-18T04:40:42.368Z,82.79
2023-04-18T04:43:12.490Z,82.93
2023-04-18T04:45:42.020Z,83.06
2023-04-18T04:48:09.492Z,82.35
2023-04-18T04:50:37.325Z,84.16
2023-04-18T04:53:07.344Z,85.07
2023-04-18T04:55:34.493Z,84.75
2023-04-18T04:58:01.016Z,85.05
2023-04-18T05:00:28.798Z,84.62
2023-04-18T05:02:56.255Z,85.00
2023-04-18T05:05:23.303Z,85.54
2023-04-18T05:07:49.733Z,85.71
2023-04-18T05:10:16.221Z,83.74
2023-04-18T05:12:42.749Z,84.97
2023-04-18T05:15:09.551Z,84.87
2023-04-18T05:17:36.014Z,85.23
2023-04-18T05:20:02.420Z,85.30
2023-04-18T05:22:28.824Z,84.18
2023-04-18T05:24:55.288Z,84.81
2023-04-18T05:27:21.907Z,85.62
2023-04-18T05:29:50.147Z,85.03
2023-04-18T05:32:16.705Z,85.48
2023-04-18T05:34:43.270Z,85.76
2023-04-18T05:37:09.830Z,83.97
2023-04-18T05:39:36.427Z,85.31
2023-04-18T05:42:03.273Z,84.55
2023-04-18T05:44:29.958Z,83.40
2023-04-18T05:46:56.365Z,84.52
2023-04-18T05:49:25.296Z,84.51
2023-04-18T05:51:52.763Z,85.62
2023-04-18T05:54:21.495Z,84.97
2023-04-18T05:56:48.235Z,85.01
2023-04-18T05:59:14.633Z,84.25
2023-04-18T06:01:41.038Z,83.77
2023-04-18T06:04:08.584Z,84.68
2023-04-18T06:06:35.896Z,84.37
2023-04-18T06:09:02.377Z,84.11
2023-04-18T06:11:28.872Z,84.04
2023-04-18T06:13:56.042Z,84.21
2023-04-18T06:16:22.596Z,84.12
2023-04-18T06:18:49.026Z,83.76
2023-04-18T06:21:15.581Z,83.72
2023-04-18T06:23:41.993Z,83.20
2023-04-18T06:26:09.193Z,83.14
2023-04-18T06:28:35.853Z,82.61
2023-04-18T06:31:02.578Z,82.01
2023-04-18T06:33:29.042Z,81.43
2023-04-18T06:35:55.752Z,82.31
2023-04-18T06:38:22.206Z,82.05
2023-04-18T06:40:48.612Z,81.88
2023-04-18T06:43:15.045Z,81.54
2023-04-18T06:45:41.633Z,80.28
2023-04-18T06:48:09.127Z,78.16
2023-04-18T06:50:35.780Z,75.34
2023-04-18T06:53:02.264Z,74.02
2023-04-18T06:55:28.745Z,71.13
2023-04-18T06:57:55.402Z,70.26
2023-04-18T07:00:22.158Z,69.09
2023-04-18T07:02:48.903Z,68.11
2023-04-18T07:05:15.513Z,65.79
2023-04-18T07:07:41.909Z,64.17
2023-04-18T07:10:09.788Z,62.13
2023-04-18T07:12:36.336Z,59.97
2023-04-18T07:15:03.795Z,61.17
2023-04-18T07:17:30.394Z,59.10
2023-04-18T07:19:56.836Z,57.18
2023-04-18T07:22:23.257Z,56.57
2023-04-18T07:24:49.674Z,56.05
2023-04-18T07:27:16.150Z,55.00
2023-04-18T07:29:42.572Z,54.70
2023-04-18T07:32:10.853Z,53.60
2023-04-18T07:34:37.492Z,54.88
2023-04-18T07:37:04.051Z,54.75
2023-04-18T07:39:35.713Z,54.72
2023-04-18T07:42:04.088Z,53.56
2023-04-18T07:44:30.646Z,54.56
2023-04-18T07:46:57.137Z,52.91
2023-04-18T07:49:23.544Z,52.76
2023-04-18T07:51:49.960Z,53.42
2023-04-18T07:54:16.830Z,52.71
2023-04-18T07:56:43.357Z,53.47
2023-04-18T07:59:09.819Z,52.05
2023-04-18T08:01:36.225Z,50.98
2023-04-18T08:04:02.771Z,50.50
2023-04-18T08:06:29.425Z,50.92
2023-04-18T08:08:55.893Z,51.53
2023-04-18T08:11:22.302Z,52.95
2023-04-18T08:13:48.726Z,53.14
2023-04-18T08:16:17.366Z,52.85
2023-04-18T08:18:44.174Z,52.27
2023-04-18T08:21:10.694Z,52.20
2023-04-18T08:23:37.132Z,51.81
2023-04-18T08:26:03.552Z,51.28
2023-04-18T08:28:30.041Z,52.49
2023-04-18T08:30:56.659Z,54.36
2023-04-18T08:33:24.029Z,53.12
2023-04-18T08:35:53.206Z,52.32
2023-04-18T08:38:19.732Z,52.80
2023-04-18T08:40:46.489Z,53.93
2023-04-18T08:43:14.852Z,55.55
2023-04-18T08:45:44.985Z,55.90
2023-04-18T08:48:13.799Z,55.56
2023-04-18T08:50:41.494Z,56.60
2023-04-18T08:53:08.477Z,57.04
2023-04-18T08:55:35.615Z,56.62
2023-04-18T08:58:03.202Z,58.44
2023-04-18T09:00:30.482Z,58.78
2023-04-18T09:02:57.604Z,58.99
2023-04-18T09:05:26.893Z,58.91
2023-04-18T09:07:54.648Z,59.02
2023-04-18T09:10:33.363Z,59.29
2023-04-18T09:13:03.284Z,59.79
2023-04-18T09:15:30.439Z,59.88
2023-04-18T09:18:02.752Z,60.33
2023-04-18T09:20:35.772Z,60.97
2023-04-18T09:23:04.271Z,62.20
2023-04-18T09:25:51.288Z,62.47
2023-04-18T09:28:29.670Z,62.52
2023-04-18T09:30:58.497Z,62.64
2023-04-18T09:33:32.957Z,62.01
2023-04-18T09:36:23.782Z,63.38
2023-04-18T09:38:55.371Z,64.15
2023-04-18T09:41:23.137Z,63.55
2023-04-18T09:43:49.614Z,64.53
2023-04-18T09:46:17.657Z,64.11
2023-04-18T09:48:44.276Z,64.94
2023-04-18T09:51:15.711Z,64.83
2023-04-18T09:53:47.648Z,65.20
2023-04-18T09:56:27.476Z,65.06
2023-04-18T09:59:03.555Z,65.37
2023-04-18T10:01:30.784Z,65.13
2023-04-18T10:03:57.827Z,66.25
2023-04-18T10:06:27.294Z,66.28
2023-04-18T10:08:55.030Z,66.35
2023-04-18T10:11:23.596Z,65.18
2023-04-18T10:13:53.560Z,63.92
2023-04-18T10:16:20.720Z,62.66
2023-04-18T10:18:49.654Z,62.50
2023-04-18T10:21:16.430Z,63.88
2023-04-18T10:23:43.055Z,64.31
2023-04-18T10:26:11.115Z,64.11
2023-04-18T10:28:57.233Z,64.16
2023-04-18T10:31:25.961Z,64.15
2023-04-18T10:34:05.700Z,63.73
2023-04-18T10:52:43.737Z,61.34
2023-04-18T10:55:15.763Z,61.18
2023-04-18T10:57:44.913Z,61.04
2023-04-18T11:00:13.889Z,59.89
2023-04-18T11:02:47.610Z,60.96
2023-04-18T11:05:19.420Z,61.56
2023-04-18T11:07:46.576Z,61.84
2023-04-18T11:10:16.143Z,62.22
2023-04-18T11:12:42.785Z,62.19
2023-04-18T11:15:11.676Z,62.47
2023-04-18T11:17:40.119Z,62.12
2023-04-18T11:20:09.237Z,61.98
2023-04-18T11:22:49.796Z,61.94
2023-04-18T11:25:17.367Z,62.30
2023-04-18T11:27:45.223Z,63.01
2023-04-18T11:30:13.106Z,62.80
2023-04-18T11:32:41.417Z,63.41
2023-04-18T11:35:12.936Z,62.07
2023-04-18T11:37:40.688Z,61.98
2023-04-18T11:40:10.150Z,61.54
2023-04-18T11:42:39.017Z,60.67
2023-04-18T11:45:13.050Z,60.09
2023-04-18T11:47:41.954Z,60.03
2023-04-18T11:50:10.996Z,60.63
2023-04-18T11:52:39.018Z,62.55
2023-04-18T11:55:18.415Z,62.07
2023-04-18T11:57:57.794Z,62.53
2023-04-18T12:00:39.508Z,62.77
2023-04-18T12:03:11.807Z,63.29
2023-04-18T12:05:40.091Z,63.10
2023-04-18T12:08:11.540Z,62.30
2023-04-18T12:10:45.262Z,61.18
2023-04-18T12:13:11.822Z,59.91
2023-04-18T12:15:40.754Z,59.55
2023-04-18T12:18:10.078Z,60.50
2023-04-18T12:20:52.314Z,58.71
2023-04-18T12:23:38.309Z,58.23
2023-04-18T12:26:07.225Z,57.88
2023-04-18T12:28:35.546Z,58.13
2023-04-18T12:31:05.346Z,58.46
2023-04-18T12:33:31.842Z,57.18
2023-04-18T12:35:58.899Z,57.82
2023-04-18T12:38:25.636Z,57.65
2023-04-18T12:40:52.467Z,57.98
2023-04-18T12:43:19.687Z,58.85
2023-04-18T12:45:47.334Z,58.87
2023-04-18T12:48:13.860Z,58.40
2023-04-18T12:50:40.437Z,58.53
2023-04-18T12:53:06.915Z,59.16
2023-04-18T12:55:33.495Z,59.32
2023-04-18T12:57:59.968Z,59.85
2023-04-18T13:00:29.246Z,59.65
2023-04-18T13:02:56.353Z,59.28
2023-04-18T13:05:27.318Z,59.25
2023-04-18T13:08:08.498Z,59.98
2023-04-18T13:10:41.591Z,59.54
2023-04-18T13:13:08.003Z,59.88
2023-04-18T13:15:34.451Z,60.29
2023-04-18T13:18:05.086Z,60.04
2023-04-18T13:20:32.124Z,59.96
2023-04-18T13:22:58.562Z,60.14
2023-04-18T13:25:25.936Z,60.01
2023-04-18T13:27:52.435Z,60.43
2023-04-18T13:30:19.109Z,60.76
2023-04-18T13:32:46.240Z,60.69
2023-04-18T13:35:12.792Z,60.59
2023-04-18T13:37:39.553Z,60.54
2023-04-18T13:40:06.925Z,60.60
2023-04-18T13:42:34.032Z,60.88
2023-04-18T13:45:00.477Z,60.61
2023-04-18T13:47:27.220Z,61.03
2023-04-18T13:49:53.803Z,61.47
2023-04-18T13:52:20.375Z,61.47
2023-04-18T13:54:47.056Z,61.36
2023-04-18T13:57:14.620Z,61.77
2023-04-18T13:59:41.344Z,61.37
2023-04-18T14:02:08.870Z,62.08
2023-04-18T14:04:36.201Z,61.71
2023-04-18T14:07:03.743Z,61.46
2023-04-18T14:09:30.279Z,61.31
2023-04-18T14:11:58.205Z,61.09
2023-04-18T14:14:24.708Z,60.94
2023-04-18T14:16:51.224Z,60.64
2023-04-18T14:19:17.895Z,60.78
2023-04-18T14:21:44.350Z,60.20
2023-04-18T14:24:11.976Z,59.18
2023-04-18T14:26:38.401Z,59.34
2023-04-18T14:29:05.105Z,59.03
2023-04-18T14:31:31.587Z,59.24
2023-04-18T14:33:58.070Z,58.73
2023-04-18T14:36:24.553Z,59.37
2023-04-18T14:38:50.985Z,59.09
2023-04-18T14:41:17.446Z,58.73
2023-04-18T14:43:43.925Z,58.81
2023-04-18T14:46:16.445Z,57.80
2023-04-18T14:48:46.267Z,58.24
2023-04-18T14:51:12.939Z,58.67
2023-04-18T14:53:39.347Z,58.26
2023-04-18T14:56:06.057Z,58.18
2023-04-18T14:58:32.471Z,57.41
2023-04-18T15:00:59.012Z,57.32
2023-04-18T15:03:25.575Z,57.42
2023-04-18T15:05:53.136Z,57.96
2023-04-18T15:08:19.662Z,57.98
2023-04-18T15:10:47.512Z,58.34
2023-04-18T15:13:13.963Z,58.45
2023-04-18T15:15:40.531Z,57.58
2023-04-18T15:18:08.309Z,57.71
2023-04-18T15:20:36.988Z,57.45
2023-04-18T15:23:03.679Z,57.39
2023-04-18T15:25:30.990Z,58.19
2023-04-18T15:27:58.376Z,57.25
2023-04-18T15:30:25.426Z,57.31
2023-04-18T15:32:52.163Z,57.40
2023-04-18T15:35:18.874Z,58.32
2023-04-18T15:37:45.375Z,58.02
2023-04-18T15:40:16.081Z,57.78
2023-04-18T15:42:43.605Z,58.22
2023-04-18T15:45:10.933Z,57.61
2023-04-18T15:47:38.732Z,57.90
2023-04-18T15:50:06.139Z,57.40
2023-04-18T15:52:32.653Z,57.72
2023-04-18T15:54:59.223Z,57.49
2023-04-18T15:57:25.688Z,57.48
2023-04-18T15:59:52.214Z,57.88
2023-04-18T16:02:18.675Z,57.71
2023-04-18T16:04:45.481Z,57.09
2023-04-18T16:07:12.122Z,57.96
2023-04-18T16:09:38.546Z,57.50
2023-04-18T16:12:05.805Z,57.24
2023-04-18T16:14:33.398Z,57.71
2023-04-18T16:16:59.933Z,56.65
2023-04-18T16:19:26.445Z,57.05
2023-04-18T16:21:52.925Z,56.13
2023-04-18T16:24:19.525Z,56.07
2023-04-18T16:26:46.012Z,55.95
2023-04-18T16:29:12.404Z,55.55
2023-04-18T16:31:38.962Z,55.63
2023-04-18T16:34:05.388Z,56.28
2023-04-18T16:36:34.412Z,56.83
2023-04-18T16:39:00.870Z,56.65
2023-04-18T16:41:27.617Z,55.90
2023-04-18T16:43:54.045Z,55.53
2023-04-18T16:46:20.626Z,55.60
2023-04-18T16:48:47.189Z,55.50
2023-04-18T16:51:16.688Z,56.03
2023-04-18T16:53:44.488Z,56.18
2023-04-18T16:56:10.952Z,56.27
2023-04-18T16:58:37.340Z,56.62
2023-04-18T17:01:03.824Z,56.79
2023-04-18T17:03:30.624Z,56.71
2023-04-18T17:05:57.311Z,57.43
2023-04-18T17:08:25.745Z,57.58
2023-04-18T17:10:52.868Z,58.07
2023-04-18T17:13:19.566Z,58.01
2023-04-18T17:15:46.227Z,58.72
2023-04-18T17:18:12.772Z,59.34
2023-04-18T17:20:39.322Z,59.24
2023-04-18T17:23:05.932Z,59.63
2023-04-18T17:25:32.389Z,59.45
2023-04-18T17:28:02.024Z,59.72
2023-04-18T17:30:29.044Z,59.41
2023-04-18T17:32:55.975Z,59.41
2023-04-18T17:35:22.728Z,59.94
2023-04-18T17:37:50.076Z,60.60
2023-04-18T17:40:16.674Z,60.52
2023-04-18T17:42:43.244Z,60.61
2023-04-18T17:45:10.054Z,60.84
2023-04-18T17:47:36.812Z,60.56
2023-04-18T17:50:07.051Z,61.07
2023-04-18T17:52:33.455Z,61.17
2023-04-18T17:55:01.534Z,60.94
2023-04-18T17:57:30.356Z,62.09
2023-04-18T17:59:56.925Z,62.22
2023-04-18T18:02:23.615Z,61.97
2023-04-18T18:04:50.365Z,62.31
2023-04-18T18:07:16.935Z,62.42
2023-04-18T18:09:43.430Z,63.27
2023-04-18T18:12:09.995Z,63.38
2023-04-18T18:14:36.533Z,63.99
2023-04-18T18:17:05.527Z,64.31
2023-04-18T18:19:32.091Z,64.10
2023-04-18T18:21:58.541Z,64.83
2023-04-18T18:24:26.763Z,64.19
2023-04-18T18:26:53.335Z,64.65
2023-04-18T18:29:19.891Z,64.86
2023-04-18T18:31:46.415Z,63.85
2023-04-18T18:34:12.916Z,64.88
2023-04-18T18:36:40.119Z,64.96
2023-04-18T18:39:06.867Z,65.15
2023-04-18T18:41:33.465Z,64.99
2023-04-18T18:44:00.196Z,64.99
2023-04-18T18:46:27.659Z,65.72
2023-04-18T18:48:54.140Z,66.57
2023-04-18T18:51:20.560Z,66.48
2023-04-18T18:53:47.034Z,66.82
2023-04-18T18:56:13.508Z,67.21
2023-04-18T18:58:40.405Z,66.52
2023-04-18T19:01:07.209Z,66.75
2023-04-18T19:03:34.678Z,67.15
2023-04-18T19:06:03.788Z,67.47
2023-04-18T19:08:30.829Z,67.30
2023-04-18T19:10:58.148Z,68.10
2023-04-18T19:13:25.085Z,68.32
2023-04-18T19:15:52.063Z,68.62
2023-04-18T19:18:21.802Z,68.11
2023-04-18T19:20:49.936Z,68.50
2023-04-18T19:25:59.815Z,67.88
2023-04-18T19:28:26.555Z,68.83
2023-04-18T19:30:53.106Z,68.95
2023-04-18T19:33:20.467Z,68.87
2023-04-18T19:35:46.869Z,69.43
2023-04-18T19:38:13.286Z,69.75
2023-04-18T19:40:39.691Z,69.82
2023-04-18T19:43:06.123Z,70.31
2023-04-18T19:45:32.690Z,70.08
2023-04-18T19:47:59.298Z,70.73
2023-04-18T19:50:25.874Z,71.10
2023-04-18T19:52:52.272Z,69.65
2023-04-18T19:55:18.680Z,70.56
2023-04-18T19:57:45.230Z,71.04
2023-04-18T20:00:13.456Z,70.56
2023-04-18T20:02:41.018Z,71.09
2023-04-18T20:05:09.186Z,70.75
2023-04-18T20:07:35.977Z,71.03
2023-04-18T20:10:02.443Z,70.95
2023-04-18T20:12:28.911Z,71.33
2023-04-18T20:14:55.882Z,71.47
2023-04-18T20:17:22.491Z,71.37
2023-04-18T20:19:49.695Z,71.44
2023-04-18T20:22:16.888Z,70.63
2023-04-18T20:24:45.002Z,70.99
2023-04-18T20:27:12.243Z,71.11
2023-04-18T20:29:38.763Z,71.28
2023-04-18T20:32:05.741Z,71.39
2023-04-18T20:34:32.529Z,71.41
2023-04-18T20:36:59.976Z,71.27
2023-04-18T20:39:26.849Z,71.10
2023-04-18T20:42:14.137Z,70.68
2023-04-18T20:44:42.927Z,71.03
2023-04-18T20:47:09.331Z,70.24
2023-04-18T20:49:36.070Z,70.40
2023-04-18T20:52:02.466Z,70.89
2023-04-18T20:54:28.861Z,70.69
2023-04-18T20:56:55.350Z,70.64
2023-04-18T20:59:25.373Z,70.56
2023-04-18T21:01:51.790Z,70.63
2023-04-18T21:04:18.466Z,70.58
2023-04-18T21:06:45.498Z,70.06
2023-04-18T21:09:11.914Z,70.29
2023-04-18T21:11:38.349Z,70.34
2023-04-18T21:14:06.606Z,70.17
2023-04-18T21:16:33.419Z,69.66
2023-04-18T21:19:00.019Z,70.18
2023-04-18T21:21:27.182Z,70.22
2023-04-18T21:23:53.579Z,70.16
2023-04-18T21:26:20.131Z,70.35
2023-04-18T21:29:00.393Z,70.34
2023-04-18T21:31:29.450Z,69.99
2023-04-18T21:33:57.889Z,70.16
2023-04-18T21:36:26.851Z,70.18
2023-04-18T21:38:58.011Z,70.31
2023-04-18T21:41:25.454Z,70.33
2023-04-18T21:43:52.193Z,69.88
2023-04-18T21:46:19.446Z,70.31
2023-04-18T21:48:46.992Z,70.05
2023-04-18T21:51:15.727Z,69.93
2023-04-18T21:53:42.703Z,70.04
2023-04-18T21:56:09.721Z,70.27
2023-04-18T21:58:36.366Z,70.27
2023-04-18T22:01:03.236Z,70.17
2023-04-18T22:03:30.059Z,69.77
2023-04-18T22:05:57.478Z,70.41
2023-04-18T22:08:25.712Z,70.21
2023-04-18T22:10:56.387Z,70.26
2023-04-18T22:13:22.789Z,70.66
2023-04-18T22:15:51.342Z,70.62
2023-04-18T22:18:18.811Z,70.58
2023-04-18T22:20:46.822Z,70.51
2023-04-18T22:23:13.732Z,70.59
2023-04-18T22:25:40.530Z,70.24
2023-04-18T22:28:07.124Z,70.42
2023-04-18T22:30:33.688Z,70.43
2023-04-18T22:33:00.307Z,70.35
2023-04-18T22:35:27.101Z,70.22
2023-04-18T22:37:53.547Z,70.83
2023-04-18T22:40:20.067Z,70.52
2023-04-18T22:42:46.462Z,70.52
2023-04-18T22:45:13.627Z,70.46
2023-04-18T22:47:40.350Z,70.77
2023-04-18T22:50:07.818Z,70.72
2023-04-18T22:55:17.040Z,71.24
2023-04-18T22:57:43.721Z,70.49
2023-04-18T23:00:11.718Z,70.96
2023-04-18T23:02:38.397Z,70.92
2023-04-18T23:05:07.310Z,70.93
2023-04-18T23:07:41.333Z,71.14
2023-04-18T23:12:49.967Z,71.50
2023-04-18T23:15:16.372Z,71.22
2023-04-18T23:17:42.917Z,71.10
2023-04-18T23:20:10.754Z,71.54
2023-04-18T23:22:38.682Z,71.77
2023-04-18T23:25:05.552Z,71.79
2023-04-18T23:27:32.067Z,71.67
2023-04-18T23:29:58.630Z,71.44
2023-04-18T23:32:25.165Z,71.18
2023-04-18T23:34:51.609Z,71.60
2023-04-18T23:37:17.987Z,71.59
2023-04-18T23:39:44.371Z,71.41
2023-04-18T23:42:10.836Z,72.17
2023-04-18T23:44:37.274Z,71.99
2023-04-18T23:47:03.774Z,72.44
2023-04-18T23:49:30.207Z,71.59
2023-04-18T23:51:56.626Z,72.11
2023-04-18T23:54:23.047Z,72.31
2023-04-18T23:56:49.707Z,72.12
2023-04-18T23:59:16.228Z,71.65
